createdAt,value
2023-05-02T06:01:42.444Z,2.60
2023-05-02T06:02:42.649Z,2.40
2023-05-02T06:03:42.601Z,1.80
2023-05-02T06:04:42.481Z,2.00
2023-05-02T06:05:42.372Z,2.40
2023-05-02T06:06:42.374Z,2.40
2023-05-02T06:07:42.390Z,2.70
2023-05-02T06:08:42.340Z,2.20
2023-05-02T06:09:42.338Z,2.00
2023-05-02T06:10:42.316Z,2.40
2023-05-02T06:11:42.318Z,2.40
2023-05-02T06:12:42.295Z,2.40
2023-05-02T06:13:42.297Z,2.70
2023-05-02T06:14:42.268Z,2.20
2023-05-02T06:15:42.311Z,2.20
2023-05-02T06:16:42.511Z,2.30
2023-05-02T06:17:42.333Z,3.20
2023-05-02T06:18:42.228Z,2.60
2023-05-02T06:19:42.223Z,2.30
2023-05-02T06:20:42.203Z,1.70
2023-05-02T06:21:42.202Z,2.50
2023-05-02T06:22:42.189Z,2.00
2023-05-02T06:23:42.172Z,2.00
2023-05-02T06:24:42.160Z,2.40
2023-05-02T06:25:42.148Z,1.70
2023-05-02T06:26:42.135Z,2.20
2023-05-02T06:27:42.127Z,1.80
2023-05-02T06:28:42.111Z,2.10
2023-05-02T06:29:42.101Z,2.70
2023-05-02T06:30:42.097Z,2.30
2023-05-02T06:31:42.120Z,2.40
2023-05-02T06:32:42.081Z,2.00
2023-05-02T06:33:42.087Z,2.60
2023-05-02T06:34:42.042Z,2.50
2023-05-02T06:35:42.033Z,2.00
2023-05-02T06:36:42.022Z,2.00
2023-05-02T06:37:42.011Z,2.10
2023-05-02T06:38:41.995Z,2.10
2023-05-02T06:39:41.984Z,2.20
2023-05-02T06:40:41.981Z,2.20
2023-05-02T06:41:41.973Z,2.10
2023-05-02T06:42:41.964Z,1.60
2023-05-02T06:43:41.953Z,2.70
2023-05-02T06:44:41.927Z,2.20
2023-05-02T06:45:41.919Z,2.50
2023-05-02T06:46:41.990Z,2.70
2023-05-02T06:47:41.937Z,2.30
2023-05-02T06:48:41.882Z,2.10
2023-05-02T06:49:41.903Z,2.40
2023-05-02T06:50:41.858Z,1.90
2023-05-02T06:51:41.873Z,2.20
2023-05-02T06:52:41.841Z,1.90
2023-05-02T06:53:41.849Z,2.40
2023-05-02T06:54:41.822Z,2.40
2023-05-02T06:55:41.806Z,2.30
2023-05-02T06:56:41.791Z,2.80
2023-05-02T06:57:41.792Z,2.40
2023-05-02T06:58:41.798Z,2.20
2023-05-02T06:59:41.761Z,2.90
2023-05-02T07:00:41.773Z,2.00
2023-05-02T07:01:41.941Z,2.80
2023-05-02T07:02:41.803Z,2.70
2023-05-02T07:03:41.770Z,2.70
2023-05-02T07:04:41.747Z,2.20
2023-05-02T07:05:41.720Z,2.50
2023-05-02T07:06:41.736Z,2.50
2023-05-02T07:07:41.683Z,2.00
2023-05-02T07:08:41.657Z,2.50
2023-05-02T07:09:41.658Z,2.40
2023-05-02T07:10:41.637Z,2.80
2023-05-02T07:11:41.631Z,2.40
2023-05-02T07:12:41.621Z,2.20
2023-05-02T07:13:41.623Z,2.70
2023-05-02T07:14:41.603Z,3.30
2023-05-02T07:15:41.586Z,2.10
2023-05-02T07:16:41.618Z,3.10
2023-05-02T07:17:41.601Z,2.40
2023-05-02T07:18:41.548Z,2.20
2023-05-02T07:19:43.923Z,2.20
2023-05-02T07:20:41.525Z,2.20
2023-05-02T07:21:41.534Z,2.80
2023-05-02T07:22:41.523Z,2.60
2023-05-02T07:23:41.495Z,2.20
2023-05-02T07:24:41.516Z,2.50
2023-05-02T07:25:41.473Z,2.00
2023-05-02T07:26:41.457Z,3.10
2023-05-02T07:27:41.456Z,2.30
2023-05-02T07:28:41.434Z,2.20
2023-05-02T07:29:41.427Z,2.10
2023-05-02T07:30:41.421Z,2.20
2023-05-02T07:31:41.423Z,1.90
2023-05-02T07:32:41.461Z,2.40
2023-05-02T07:33:41.381Z,1.80
2023-05-02T07:34:41.363Z,2.00
2023-05-02T07:35:41.377Z,2.50
2023-05-02T07:36:41.349Z,2.50
2023-05-02T07:37:41.364Z,2.10
2023-05-02T07:38:41.324Z,2.20
2023-05-02T07:39:41.318Z,2.10
2023-05-02T07:40:41.308Z,2.10
2023-05-02T07:41:41.287Z,2.20
2023-05-02T07:42:41.274Z,1.90
2023-05-02T07:43:41.265Z,2.10
2023-05-02T07:44:41.253Z,2.00
2023-05-02T07:45:41.257Z,2.30
2023-05-02T07:46:41.356Z,2.00
2023-05-02T07:47:41.260Z,2.10
2023-05-02T07:48:41.205Z,2.20
2023-05-02T07:49:41.200Z,2.20
2023-05-02T07:50:41.187Z,2.10
2023-05-02T07:51:41.176Z,2.20
2023-05-02T07:52:41.172Z,2.10
2023-05-02T07:53:41.179Z,2.10
2023-05-02T07:54:41.146Z,2.10
2023-05-02T07:55:41.132Z,2.70
2023-05-02T07:56:41.119Z,1.80
2023-05-02T07:57:41.118Z,2.70
2023-05-02T07:58:41.102Z,2.00
2023-05-02T07:59:41.090Z,2.30
2023-05-02T08:00:41.076Z,1.90
2023-05-02T08:01:41.078Z,2.10
2023-05-02T08:02:41.121Z,2.10
2023-05-02T08:03:41.191Z,2.50
2023-05-02T08:04:41.152Z,2.10
2023-05-02T08:05:41.024Z,2.20
2023-05-02T08:06:41.095Z,2.30
2023-05-02T08:07:40.999Z,2.30
2023-05-02T08:08:41.009Z,2.00
2023-05-02T08:09:40.999Z,2.70
2023-05-02T08:10:40.978Z,2.10
2023-05-02T08:11:40.959Z,2.20
2023-05-02T08:12:40.944Z,2.40
2023-05-02T08:13:40.933Z,2.20
2023-05-02T08:14:40.936Z,2.60
2023-05-02T08:15:40.944Z,2.60
2023-05-02T08:16:41.042Z,2.50
2023-05-02T08:17:40.926Z,2.60
2023-05-02T08:18:40.879Z,2.40
2023-05-02T08:19:40.869Z,3.00
2023-05-02T08:20:40.865Z,2.70
2023-05-02T08:21:40.847Z,3.10
2023-05-02T08:22:40.849Z,2.40
2023-05-02T08:23:40.829Z,2.10
2023-05-02T08:24:41.042Z,2.30
2023-05-02T08:25:40.829Z,1.90
2023-05-02T08:26:40.819Z,2.30
2023-05-02T08:27:40.790Z,2.40
2023-05-02T08:28:40.773Z,2.10
2023-05-02T08:29:40.761Z,2.10
2023-05-02T08:30:40.757Z,2.00
2023-05-02T08:31:40.812Z,2.00
2023-05-02T08:32:40.744Z,2.10
2023-05-02T08:33:40.717Z,2.10
2023-05-02T08:34:40.701Z,2.10
2023-05-02T08:35:40.690Z,2.30
2023-05-02T08:36:40.708Z,2.30
2023-05-02T08:37:40.756Z,1.90
2023-05-02T08:38:40.661Z,1.80
2023-05-02T08:39:40.648Z,2.40
2023-05-02T08:40:42.850Z,1.80
2023-05-02T08:41:40.650Z,2.20
2023-05-02T08:42:40.608Z,2.00
2023-05-02T08:43:40.603Z,1.90
2023-05-02T08:44:40.586Z,1.90
2023-05-02T08:45:40.586Z,1.60
2023-05-02T08:46:40.575Z,2.20
2023-05-02T08:47:40.575Z,1.80
2023-05-02T08:48:40.553Z,1.40
2023-05-02T08:49:40.528Z,1.90
2023-05-02T08:50:40.532Z,1.60
2023-05-02T08:51:42.288Z,1.30
2023-05-02T08:52:40.499Z,1.40
2023-05-02T08:53:40.483Z,1.30
2023-05-02T08:54:40.473Z,1.40
2023-05-02T08:55:40.459Z,1.60
2023-05-02T08:56:40.452Z,2.20
2023-05-02T08:57:40.459Z,1.40
2023-05-02T08:58:40.426Z,1.00
2023-05-02T08:59:40.418Z,1.30
2023-05-02T09:00:40.404Z,1.60
2023-05-02T09:01:40.580Z,1.50
2023-05-02T09:02:40.420Z,1.10
2023-05-02T09:03:40.372Z,1.40
2023-05-02T09:04:40.541Z,1.30
2023-05-02T09:05:40.347Z,1.20
2023-05-02T09:06:41.445Z,1.00
2023-05-02T09:07:40.327Z,1.20
2023-05-02T09:08:40.334Z,1.30
2023-05-02T09:09:40.303Z,1.30
2023-05-02T09:10:40.316Z,1.40
2023-05-02T09:11:40.301Z,1.50
2023-05-02T09:12:40.480Z,1.30
2023-05-02T09:13:40.293Z,1.40
2023-05-02T09:14:40.264Z,1.20
2023-05-02T09:15:40.268Z,1.20
2023-05-02T09:16:40.471Z,1.20
2023-05-02T09:17:40.506Z,1.40
2023-05-02T09:18:40.381Z,1.40
2023-05-02T09:19:40.298Z,1.40
2023-05-02T09:20:40.323Z,1.40
2023-05-02T09:21:40.355Z,1.70
2023-05-02T09:22:40.328Z,1.80
2023-05-02T09:23:40.150Z,1.50
2023-05-02T09:24:40.141Z,1.50
2023-05-02T09:25:40.129Z,1.30
2023-05-02T09:26:40.119Z,1.50
2023-05-02T09:27:40.256Z,1.20
2023-05-02T09:28:40.095Z,1.30
2023-05-02T09:29:40.197Z,1.20
2023-05-02T09:30:40.112Z,1.40
2023-05-02T09:32:40.167Z,1.30
2023-05-02T09:33:40.063Z,1.40
2023-05-02T09:34:40.046Z,1.20
2023-05-02T09:35:40.019Z,1.40
2023-05-02T09:36:40.013Z,1.40
2023-05-02T09:37:39.996Z,1.30
2023-05-02T09:38:39.986Z,1.10
2023-05-02T09:39:39.974Z,1.30
2023-05-02T09:40:39.963Z,1.30
2023-05-02T09:41:39.951Z,1.10
2023-05-02T09:42:39.940Z,1.10
2023-05-02T09:43:39.936Z,1.20
2023-05-02T09:44:39.941Z,1.00
2023-05-02T09:45:39.938Z,1.00
2023-05-02T09:46:40.079Z,1.20
2023-05-02T09:47:39.896Z,1.30
2023-05-02T09:48:39.875Z,1.10
2023-05-02T09:49:39.879Z,1.20
2023-05-02T09:50:39.852Z,1.00
2023-05-02T09:51:39.844Z,1.00
2023-05-02T09:52:39.833Z,1.10
2023-05-02T09:53:39.817Z,0.80
2023-05-02T09:54:39.814Z,1.40
2023-05-02T09:55:39.793Z,0.90
2023-05-02T09:56:39.788Z,1.10
2023-05-02T09:57:39.934Z,1.20
2023-05-02T09:58:40.091Z,1.00
2023-05-02T09:59:39.760Z,1.20
2023-05-02T10:00:39.745Z,1.60
2023-05-02T10:01:39.798Z,1.30
2023-05-02T10:02:40.071Z,1.20
2023-05-02T10:03:39.838Z,1.10
2023-05-02T10:04:39.995Z,1.20
2023-05-02T10:05:39.689Z,1.30
2023-05-02T10:06:39.713Z,1.30
2023-05-02T10:07:39.662Z,1.20
2023-05-02T10:08:39.659Z,1.40
2023-05-02T10:09:39.641Z,0.90
2023-05-02T10:10:39.653Z,1.30
2023-05-02T10:11:39.621Z,1.40
2023-05-02T10:12:39.613Z,1.20
2023-05-02T10:13:39.921Z,1.30
2023-05-02T10:14:39.600Z,1.10
2023-05-02T10:15:39.596Z,1.00
2023-05-02T10:16:39.563Z,1.20
2023-05-02T10:17:39.709Z,1.00
2023-05-02T10:18:39.544Z,1.40
2023-05-02T10:19:39.534Z,1.40
2023-05-02T10:20:39.528Z,1.10
2023-05-02T10:21:39.507Z,1.20
2023-05-02T10:22:39.653Z,0.80
2023-05-02T10:23:39.487Z,1.50
2023-05-02T10:24:39.476Z,1.10
2023-05-02T10:25:39.462Z,1.10
2023-05-02T10:26:39.455Z,2.70
2023-05-02T10:27:39.442Z,1.30
2023-05-02T10:28:39.431Z,1.00
2023-05-02T10:29:39.421Z,0.90
2023-05-02T10:30:39.407Z,1.00
2023-05-02T10:31:39.429Z,1.50
2023-05-02T10:32:39.470Z,1.20
2023-05-02T10:33:39.398Z,1.00
2023-05-02T10:34:39.360Z,0.90
2023-05-02T10:35:39.351Z,0.90
2023-05-02T10:36:39.350Z,1.00
2023-05-02T10:37:39.332Z,1.10
2023-05-02T10:38:39.344Z,0.90
2023-05-02T10:39:39.325Z,1.00
2023-05-02T10:40:39.303Z,1.10
2023-05-02T10:41:39.290Z,1.10
2023-05-02T10:42:39.291Z,1.00
2023-05-02T10:43:39.264Z,1.10
2023-05-02T10:44:39.262Z,0.80
2023-05-02T10:45:39.238Z,1.00
2023-05-02T10:46:39.273Z,0.90
2023-05-02T10:47:39.266Z,1.30
2023-05-02T10:48:39.205Z,0.90
2023-05-02T10:49:39.216Z,0.70
2023-05-02T10:50:39.183Z,0.80
2023-05-02T10:51:39.198Z,1.00
2023-05-02T10:52:39.160Z,0.90
2023-05-02T10:53:39.169Z,1.00
2023-05-02T10:54:39.149Z,1.00
2023-05-02T10:55:39.136Z,1.00
2023-05-02T10:56:39.114Z,1.00
2023-05-02T10:57:39.101Z,1.00
2023-05-02T10:58:39.094Z,1.10
2023-05-02T10:59:39.104Z,1.10
2023-05-02T11:00:39.111Z,0.90
2023-05-02T11:01:39.383Z,1.10
2023-05-02T11:02:39.094Z,1.20
2023-05-02T11:03:39.106Z,1.20
2023-05-02T11:04:39.067Z,1.10
2023-05-02T11:05:39.038Z,1.00
2023-05-02T11:06:39.036Z,1.40
2023-05-02T11:07:38.990Z,1.10
2023-05-02T11:08:39.004Z,1.00
2023-05-02T11:09:38.969Z,1.10
2023-05-02T11:10:38.959Z,1.10
2023-05-02T11:11:38.957Z,1.70
2023-05-02T11:12:38.941Z,1.30
2023-05-02T11:13:38.924Z,1.20
2023-05-02T11:14:38.916Z,1.20
2023-05-02T11:15:38.902Z,1.10
2023-05-02T11:16:38.915Z,1.40
2023-05-02T11:17:38.898Z,1.00
2023-05-02T11:18:38.879Z,2.10
2023-05-02T11:19:38.867Z,1.30
2023-05-02T11:20:38.847Z,1.20
2023-05-02T11:21:38.854Z,1.00
2023-05-02T11:22:38.825Z,1.20
2023-05-02T11:23:38.811Z,1.00
2023-05-02T11:24:38.834Z,0.90
2023-05-02T11:25:38.789Z,1.30
2023-05-02T11:26:38.780Z,1.10
2023-05-02T11:27:38.778Z,1.50
2023-05-02T11:28:38.755Z,0.80
2023-05-02T11:29:38.756Z,1.10
2023-05-02T11:30:38.742Z,1.20
2023-05-02T11:31:38.816Z,1.00
2023-05-02T11:32:38.914Z,1.00
2023-05-02T11:33:38.702Z,0.90
2023-05-02T11:34:38.714Z,1.10
2023-05-02T11:35:38.676Z,1.00
2023-05-02T11:36:38.679Z,1.30
2023-05-02T11:37:38.684Z,1.00
2023-05-02T11:38:38.672Z,1.00
2023-05-02T11:39:38.642Z,1.10
2023-05-02T11:40:38.628Z,1.20
2023-05-02T11:41:38.624Z,1.50
2023-05-02T11:42:38.600Z,0.90
2023-05-02T11:43:38.590Z,1.10
2023-05-02T11:44:38.572Z,1.10
2023-05-02T11:45:38.592Z,1.30
2023-05-02T11:46:38.657Z,1.10
2023-05-02T11:47:38.588Z,1.00
2023-05-02T11:48:38.583Z,3.00
2023-05-02T11:49:38.522Z,2.60
2023-05-02T11:50:40.070Z,0.90
2023-05-02T11:51:38.491Z,1.10
2023-05-02T11:52:38.489Z,1.20
2023-05-02T11:53:38.525Z,1.10
2023-05-02T11:54:38.474Z,1.30
2023-05-02T11:55:38.451Z,1.30
2023-05-02T11:56:38.449Z,1.10
2023-05-02T11:57:38.428Z,1.00
2023-05-02T11:58:38.429Z,1.30
2023-05-02T11:59:38.404Z,1.00
2023-05-02T12:00:38.411Z,1.20
2023-05-02T12:01:38.384Z,1.00
2023-05-02T12:02:38.419Z,1.30
2023-05-02T12:03:38.601Z,1.10
2023-05-02T12:04:38.355Z,1.10
2023-05-02T12:05:38.411Z,1.10
2023-05-02T12:06:38.361Z,1.20
2023-05-02T12:07:38.351Z,1.10
2023-05-02T12:08:38.314Z,1.00
2023-05-02T12:09:38.397Z,1.10
2023-05-02T12:10:38.293Z,1.10
2023-05-02T12:11:38.319Z,1.00
2023-05-02T12:12:38.425Z,1.20
2023-05-02T12:13:38.251Z,1.00
2023-05-02T12:14:38.247Z,0.90
2023-05-02T12:15:38.238Z,1.10
2023-05-02T12:16:38.344Z,1.10
2023-05-02T12:17:38.271Z,0.90
2023-05-02T12:18:38.300Z,1.00
2023-05-02T12:19:38.188Z,0.80
2023-05-02T12:20:38.174Z,1.00
2023-05-02T12:21:38.172Z,0.90
2023-05-02T12:22:38.326Z,1.30
2023-05-02T12:23:38.145Z,0.90
2023-05-02T12:24:38.136Z,1.10
2023-05-02T12:25:38.142Z,1.00
2023-05-02T12:26:38.115Z,0.90
2023-05-02T12:27:38.129Z,1.20
2023-05-02T12:28:38.095Z,1.30
2023-05-02T12:29:38.074Z,1.30
2023-05-02T12:30:38.069Z,1.10
2023-05-02T12:31:38.099Z,1.10
2023-05-02T12:32:38.090Z,1.50
2023-05-02T12:33:38.058Z,1.30
2023-05-02T12:34:38.032Z,1.10
2023-05-02T12:35:38.011Z,1.20
2023-05-02T12:36:38.011Z,1.10
2023-05-02T12:37:38.092Z,1.10
2023-05-02T12:38:37.969Z,1.00
2023-05-02T12:39:37.970Z,1.20
2023-05-02T12:40:37.950Z,1.30
2023-05-02T12:41:37.988Z,1.50
2023-05-02T12:42:37.950Z,1.10
2023-05-02T12:43:38.251Z,1.30
2023-05-02T12:44:37.918Z,1.00
2023-05-02T12:45:37.901Z,1.00
2023-05-02T12:46:37.938Z,1.00
2023-05-02T12:47:37.904Z,1.30
2023-05-02T12:48:37.863Z,1.10
2023-05-02T12:49:37.863Z,0.90
2023-05-02T12:50:37.839Z,1.50
2023-05-02T12:51:37.830Z,1.00
2023-05-02T12:52:37.821Z,1.10
2023-05-02T12:53:37.812Z,1.10
2023-05-02T12:54:37.974Z,1.10
2023-05-02T12:55:37.784Z,1.00
2023-05-02T12:56:37.773Z,1.00
2023-05-02T12:57:37.786Z,0.90
2023-05-02T12:58:37.755Z,1.20
2023-05-02T12:59:37.747Z,0.90
2023-05-02T13:00:37.835Z,1.00
2023-05-02T13:01:37.909Z,1.00
2023-05-02T13:02:37.746Z,1.10
2023-05-02T13:03:37.747Z,0.90
2023-05-02T13:04:37.686Z,0.90
2023-05-02T13:05:37.676Z,0.90
2023-05-02T13:06:37.995Z,0.90
2023-05-02T13:07:37.673Z,0.80
2023-05-02T13:08:37.653Z,1.10
2023-05-02T13:09:37.692Z,1.00
2023-05-02T13:10:37.635Z,0.80
2023-05-02T13:11:37.660Z,1.10
2023-05-02T13:12:37.596Z,0.90
2023-05-02T13:13:37.602Z,1.10
2023-05-02T13:14:37.680Z,0.80
2023-05-02T13:15:37.568Z,1.20
2023-05-02T13:16:37.682Z,0.70
2023-05-02T13:17:37.692Z,0.80
2023-05-02T13:18:37.570Z,0.90
2023-05-02T13:19:40.521Z,0.80
2023-05-02T13:20:38.535Z,0.80
2023-05-02T13:21:37.494Z,0.70
2023-05-02T13:22:37.488Z,0.80
2023-05-02T13:23:37.469Z,0.80
2023-05-02T13:24:37.460Z,0.90
2023-05-02T13:25:37.453Z,1.00
2023-05-02T13:26:37.441Z,0.80
2023-05-02T13:27:37.435Z,0.80
2023-05-02T13:28:37.433Z,0.80
2023-05-02T13:29:37.430Z,1.30
2023-05-02T13:30:37.428Z,1.10
2023-05-02T13:31:37.450Z,1.80
2023-05-02T13:32:37.452Z,1.00
2023-05-02T13:33:37.373Z,1.00
2023-05-02T13:34:37.354Z,1.00
2023-05-02T13:35:37.345Z,0.80
2023-05-02T13:36:37.322Z,0.90
2023-05-02T13:37:37.319Z,0.90
2023-05-02T13:38:37.320Z,1.00
2023-05-02T13:39:37.292Z,0.90
2023-05-02T13:40:37.285Z,1.20
2023-05-02T13:41:37.272Z,0.90
2023-05-02T13:42:37.257Z,0.80
2023-05-02T13:43:37.251Z,0.80
2023-05-02T13:44:37.240Z,0.80
2023-05-02T13:45:37.263Z,1.10
2023-05-02T13:46:37.363Z,1.00
2023-05-02T13:47:38.338Z,0.90
2023-05-02T13:48:37.197Z,0.90
2023-05-02T13:49:37.185Z,1.20
2023-05-02T13:50:37.172Z,0.90
2023-05-02T13:51:37.168Z,0.80
2023-05-02T13:52:37.301Z,1.30
2023-05-02T13:53:37.138Z,1.00
2023-05-02T13:54:37.130Z,0.80
2023-05-02T13:55:37.123Z,1.00
2023-05-02T13:56:37.102Z,1.00
2023-05-02T13:57:37.098Z,0.70
2023-05-02T13:58:37.077Z,0.90
2023-05-02T13:59:37.094Z,0.80
2023-05-02T14:00:37.059Z,1.10
2023-05-02T14:01:37.095Z,0.60
2023-05-02T14:02:37.110Z,1.90
2023-05-02T14:03:37.082Z,1.30
2023-05-02T14:04:37.010Z,1.30
2023-05-02T14:05:37.002Z,0.90
2023-05-02T14:06:37.025Z,1.00
2023-05-02T14:07:36.983Z,0.80
2023-05-02T14:08:36.970Z,1.20
2023-05-02T14:09:36.959Z,1.30
2023-05-02T14:10:36.947Z,0.90
2023-05-02T14:11:36.937Z,0.90
2023-05-02T14:12:36.938Z,0.80
2023-05-02T14:13:36.916Z,1.00
2023-05-02T14:14:36.899Z,1.00
2023-05-02T14:15:36.910Z,1.50
2023-05-02T14:16:37.061Z,1.00
2023-05-02T14:17:36.919Z,0.80
2023-05-02T14:18:36.863Z,0.90
2023-05-02T14:19:36.872Z,0.80
2023-05-02T14:20:36.840Z,1.10
2023-05-02T14:21:36.827Z,1.10
2023-05-02T14:22:36.827Z,0.90
2023-05-02T14:23:36.808Z,0.90
2023-05-02T14:24:36.803Z,1.00
2023-05-02T14:25:36.788Z,0.80
2023-05-02T14:26:36.772Z,1.00
2023-05-02T14:27:36.757Z,1.00
2023-05-02T14:28:38.211Z,0.90
2023-05-02T14:29:36.749Z,0.90
2023-05-02T14:30:36.734Z,0.90
2023-05-02T14:31:36.820Z,1.10
2023-05-02T14:32:36.727Z,1.50
2023-05-02T14:33:36.714Z,0.90
2023-05-02T14:34:36.680Z,1.00
2023-05-02T14:35:36.669Z,0.80
2023-05-02T14:36:36.654Z,1.00
2023-05-02T14:37:36.653Z,1.10
2023-05-02T14:38:36.635Z,1.10
2023-05-02T14:39:36.644Z,0.90
2023-05-02T14:40:36.608Z,0.80
2023-05-02T14:41:36.600Z,1.00
2023-05-02T14:42:36.612Z,2.00
2023-05-02T14:43:36.578Z,0.90
2023-05-02T14:44:36.582Z,1.20
2023-05-02T14:45:36.558Z,0.90
2023-05-02T14:46:36.575Z,0.80
2023-05-02T14:47:36.581Z,1.20
2023-05-02T14:48:36.522Z,1.20
2023-05-02T14:49:36.574Z,1.10
2023-05-02T14:50:36.502Z,1.00
2023-05-02T14:51:36.488Z,1.30
2023-05-02T14:52:36.533Z,1.10
2023-05-02T14:53:36.482Z,1.30
2023-05-02T14:54:36.454Z,0.90
2023-05-02T14:55:36.448Z,1.10
2023-05-02T14:56:36.434Z,0.80
2023-05-02T14:57:36.417Z,1.00
2023-05-02T14:58:36.406Z,0.90
2023-05-02T14:59:36.471Z,0.90
2023-05-02T15:00:36.393Z,0.90
2023-05-02T15:01:36.388Z,1.10
2023-05-02T15:02:36.506Z,1.00
2023-05-02T15:03:46.027Z,1.20
2023-05-02T15:04:37.418Z,0.70
2023-05-02T15:05:36.379Z,0.70
2023-05-02T15:06:37.077Z,0.90
2023-05-02T15:07:36.311Z,0.90
2023-05-02T15:08:37.321Z,1.00
2023-05-02T15:09:36.293Z,1.20
2023-05-02T15:10:36.273Z,0.90
2023-05-02T15:11:36.261Z,0.90
2023-05-02T15:12:36.257Z,1.00
2023-05-02T15:13:36.239Z,0.80
2023-05-02T15:14:36.229Z,0.80
2023-05-02T15:15:36.219Z,0.60
2023-05-02T15:16:36.220Z,0.70
2023-05-02T15:17:36.610Z,0.80
2023-05-02T15:18:36.192Z,1.40
2023-05-02T15:19:36.175Z,1.00
2023-05-02T15:20:36.163Z,0.90
2023-05-02T15:21:36.179Z,1.00
2023-05-02T15:22:36.156Z,0.90
2023-05-02T15:23:36.131Z,1.00
2023-05-02T15:24:36.129Z,1.00
2023-05-02T15:25:36.109Z,1.10
2023-05-02T15:26:36.097Z,1.00
2023-05-02T15:27:36.196Z,1.30
2023-05-02T15:28:36.087Z,1.10
2023-05-02T15:29:36.065Z,1.00
2023-05-02T15:30:36.131Z,1.20
2023-05-02T15:31:36.068Z,1.10
2023-05-02T15:32:36.206Z,1.00
2023-05-02T15:33:38.016Z,0.90
2023-05-02T15:34:36.077Z,1.80
2023-05-02T15:35:36.079Z,1.10
2023-05-02T15:36:35.985Z,1.20
2023-05-02T15:37:36.025Z,1.00
2023-05-02T15:38:38.129Z,1.40
2023-05-02T15:39:35.952Z,1.10
2023-05-02T15:40:35.968Z,0.70
2023-05-02T15:41:35.931Z,0.90
2023-05-02T15:42:36.798Z,0.80
2023-05-02T15:43:35.913Z,1.00
2023-05-02T15:44:35.988Z,0.80
2023-05-02T15:45:36.183Z,1.10
2023-05-02T15:46:36.073Z,0.90
2023-05-02T15:47:36.100Z,1.00
2023-05-02T15:48:35.977Z,0.80
2023-05-02T15:49:35.916Z,0.80
2023-05-02T15:50:35.908Z,1.00
2023-05-02T15:51:35.857Z,0.80
2023-05-02T15:52:35.861Z,1.00
2023-05-02T15:53:36.003Z,1.00
2023-05-02T15:54:35.789Z,1.30
2023-05-02T15:55:35.774Z,1.00
2023-05-02T15:56:35.770Z,1.20
2023-05-02T15:57:35.747Z,0.90
2023-05-02T15:58:35.741Z,1.10
2023-05-02T15:59:35.729Z,1.70
2023-05-02T16:00:35.719Z,1.40
2023-05-02T16:01:35.763Z,1.00
2023-05-02T16:02:35.694Z,1.00
2023-05-02T16:03:35.767Z,0.80
2023-05-02T16:04:35.750Z,0.70
2023-05-02T16:05:35.661Z,1.30
2023-05-02T16:06:35.687Z,1.10
2023-05-02T16:07:35.637Z,1.00
2023-05-02T16:08:35.627Z,0.90
2023-05-02T16:09:35.692Z,1.00
2023-05-02T16:10:35.726Z,1.00
2023-05-02T16:11:35.586Z,1.10
2023-05-02T16:12:35.579Z,0.80
2023-05-02T16:13:35.564Z,0.90
2023-05-02T16:14:35.575Z,1.10
2023-05-02T16:15:35.543Z,0.90
2023-05-02T16:16:35.753Z,1.00
2023-05-02T16:17:35.538Z,1.30
2023-05-02T16:18:35.531Z,0.90
2023-05-02T16:19:35.525Z,1.10
2023-05-02T16:20:35.547Z,1.00
2023-05-02T16:21:35.532Z,1.10
2023-05-02T16:22:35.508Z,1.40
2023-05-02T16:23:35.534Z,1.30
2023-05-02T16:24:35.592Z,0.90
2023-05-02T16:25:35.596Z,1.00
2023-05-02T16:26:35.535Z,0.80
2023-05-02T16:27:35.408Z,1.10
2023-05-02T16:28:35.399Z,1.20
2023-05-02T16:29:35.397Z,1.20
2023-05-02T16:30:35.376Z,0.90
2023-05-02T16:31:35.412Z,1.10
2023-05-02T16:32:35.380Z,1.10
2023-05-02T16:33:35.343Z,0.80
2023-05-02T16:34:35.330Z,0.90
2023-05-02T16:35:35.319Z,1.00
2023-05-02T16:36:35.317Z,0.80
2023-05-02T16:37:35.388Z,1.00
2023-05-02T16:38:35.298Z,0.90
2023-05-02T16:39:35.280Z,1.00
2023-05-02T16:40:35.285Z,0.80
2023-05-02T16:41:35.297Z,0.90
2023-05-02T16:42:35.267Z,0.80
2023-05-02T16:43:35.251Z,1.10
2023-05-02T16:44:35.229Z,0.90
2023-05-02T16:45:35.211Z,1.10
2023-05-02T16:46:35.275Z,1.00
2023-05-02T16:47:35.211Z,1.00
2023-05-02T16:48:35.382Z,0.90
2023-05-02T16:49:35.172Z,1.20
2023-05-02T16:50:35.160Z,0.80
2023-05-02T16:51:35.149Z,0.90
2023-05-02T16:52:35.135Z,0.90
2023-05-02T16:53:35.131Z,0.70
2023-05-02T16:54:35.109Z,1.00
2023-05-02T16:55:35.105Z,1.00
2023-05-02T16:56:35.089Z,0.70
2023-05-02T16:57:35.097Z,1.40
2023-05-02T16:58:35.067Z,0.90
2023-05-02T16:59:35.055Z,0.90
2023-05-02T17:00:35.094Z,1.10
2023-05-02T17:01:35.115Z,0.90
2023-05-02T17:02:35.142Z,1.00
2023-05-02T17:03:35.040Z,0.90
2023-05-02T17:04:35.009Z,1.10
2023-05-02T17:05:35.147Z,0.90
2023-05-02T17:06:35.025Z,1.10
2023-05-02T17:07:34.973Z,0.90
2023-05-02T17:08:34.950Z,0.80
2023-05-02T17:09:34.971Z,1.10
2023-05-02T17:10:34.929Z,0.80
2023-05-02T17:11:34.923Z,0.90
2023-05-02T17:12:34.909Z,0.80
2023-05-02T17:13:34.929Z,1.00
2023-05-02T17:14:34.892Z,1.10
2023-05-02T17:15:34.867Z,0.60
2023-05-02T17:16:35.052Z,0.70
2023-05-02T17:17:34.850Z,1.30
2023-05-02T17:18:34.855Z,0.90
2023-05-02T17:19:34.844Z,1.10
2023-05-02T17:20:34.826Z,1.10
2023-05-02T17:21:34.807Z,1.30
2023-05-02T17:22:34.806Z,0.70
2023-05-02T17:23:34.788Z,1.70
2023-05-02T17:24:34.772Z,0.80
2023-05-02T17:25:34.787Z,1.00
2023-05-02T17:26:34.752Z,1.00
2023-05-02T17:27:34.743Z,1.00
2023-05-02T17:28:34.732Z,0.90
2023-05-02T17:29:34.741Z,1.40
2023-05-02T17:30:34.714Z,1.00
2023-05-02T17:31:34.766Z,1.00
2023-05-02T17:32:34.718Z,1.00
2023-05-02T17:33:34.690Z,0.90
2023-05-02T17:34:34.671Z,1.10
2023-05-02T17:35:34.667Z,1.10
2023-05-02T17:36:34.660Z,0.90
2023-05-02T17:37:34.637Z,1.10
2023-05-02T17:38:34.626Z,1.20
2023-05-02T17:39:34.629Z,1.00
2023-05-02T17:40:36.096Z,1.00
2023-05-02T17:41:34.780Z,0.70
2023-05-02T17:42:34.575Z,1.10
2023-05-02T17:43:34.565Z,1.00
2023-05-02T17:44:34.564Z,1.10
2023-05-02T17:45:34.615Z,1.00
2023-05-02T17:46:34.563Z,1.20
2023-05-02T17:47:34.583Z,1.10
2023-05-02T17:48:34.499Z,0.70
2023-05-02T17:49:34.490Z,0.80
2023-05-02T17:50:34.481Z,0.70
2023-05-02T17:51:34.476Z,1.00
2023-05-02T17:52:34.457Z,0.90
2023-05-02T17:53:34.443Z,1.10
2023-05-02T17:54:34.469Z,1.10
2023-05-02T17:55:34.438Z,1.30
2023-05-02T17:56:34.444Z,1.20
2023-05-02T17:57:34.422Z,1.00
2023-05-02T17:58:34.395Z,1.80
2023-05-02T17:59:34.386Z,1.40
2023-05-02T18:00:34.368Z,1.10
2023-05-02T18:01:34.444Z,1.20
2023-05-02T18:02:34.387Z,1.50
2023-05-02T18:03:34.421Z,1.20
2023-05-02T18:04:34.334Z,1.10
2023-05-02T18:05:34.339Z,1.20
2023-05-02T18:06:34.373Z,0.90
2023-05-02T18:07:34.305Z,1.10
2023-05-02T18:08:34.289Z,1.20
2023-05-02T18:09:34.270Z,1.10
2023-05-02T18:10:34.256Z,1.20
2023-05-02T18:11:34.243Z,1.20
2023-05-02T18:12:34.242Z,1.20
2023-05-02T18:13:36.167Z,1.30
2023-05-02T18:14:34.211Z,1.30
2023-05-02T18:15:34.201Z,0.90
2023-05-02T18:16:34.275Z,1.10
2023-05-02T18:17:34.400Z,1.00
2023-05-02T18:18:34.168Z,1.20
2023-05-02T18:19:34.159Z,1.20
2023-05-02T18:20:34.148Z,1.50
2023-05-02T18:21:34.165Z,1.10
2023-05-02T18:22:34.233Z,1.90
2023-05-02T18:23:34.114Z,0.90
2023-05-02T18:24:34.134Z,0.70
2023-05-02T18:25:34.086Z,0.90
2023-05-02T18:26:34.088Z,1.10
2023-05-02T18:27:34.067Z,0.90
2023-05-02T18:28:34.051Z,1.10
2023-05-02T18:29:34.050Z,1.20
2023-05-02T18:30:34.032Z,1.10
2023-05-02T18:31:34.094Z,1.00
2023-05-02T18:32:34.177Z,1.60
2023-05-02T18:33:34.022Z,1.10
2023-05-02T18:34:36.138Z,1.00
2023-05-02T18:35:33.985Z,1.10
2023-05-02T18:36:34.051Z,1.00
2023-05-02T18:37:33.948Z,1.20
2023-05-02T18:38:34.080Z,1.20
2023-05-02T18:39:33.929Z,1.30
2023-05-02T18:40:33.938Z,1.30
2023-05-02T18:41:33.982Z,1.40
2023-05-02T18:42:33.991Z,1.20
2023-05-02T18:43:33.885Z,1.20
2023-05-02T18:44:33.894Z,1.60
2023-05-02T18:45:33.864Z,1.30
2023-05-02T18:46:33.889Z,1.00
2023-05-02T18:47:33.892Z,1.20
2023-05-02T18:48:33.842Z,1.40
2023-05-02T18:49:33.845Z,1.80
2023-05-02T18:50:33.806Z,1.50
2023-05-02T18:51:33.803Z,1.90
2023-05-02T18:52:33.779Z,1.60
2023-05-02T18:53:33.775Z,1.30
2023-05-02T18:54:33.905Z,1.20
2023-05-02T18:55:33.775Z,1.20
2023-05-02T18:56:33.736Z,3.30
2023-05-02T18:57:33.783Z,1.30
2023-05-02T18:58:33.718Z,1.30
2023-05-02T18:59:33.719Z,1.30
2023-05-02T19:00:36.272Z,1.30
2023-05-02T19:01:33.857Z,1.00
2023-05-02T19:02:33.846Z,1.70
2023-05-02T19:03:33.748Z,1.20
2023-05-02T19:04:33.660Z,1.60
2023-05-02T19:05:33.668Z,1.20
2023-05-02T19:06:33.737Z,1.40
2023-05-02T19:07:33.765Z,2.40
2023-05-02T19:08:33.599Z,1.80
2023-05-02T19:09:33.593Z,1.20
2023-05-02T19:10:33.583Z,1.30
2023-05-02T19:11:33.567Z,1.70
2023-05-02T19:12:33.562Z,2.00
2023-05-02T19:13:33.550Z,1.80
2023-05-02T19:14:33.529Z,1.90
2023-05-02T19:15:33.523Z,1.50
2023-05-02T19:16:33.631Z,1.30
2023-05-02T19:17:33.564Z,1.40
2023-05-02T19:18:33.504Z,1.10
2023-05-02T19:19:33.497Z,1.20
2023-05-02T19:20:33.468Z,1.50